createdAt,value
2022-10-07T00:00:58.078Z,26.57
2022-10-07T00:03:32.868Z,23.80
2022-10-07T00:06:13.386Z,22.20
2022-10-07T00:08:43.215Z,18.33
2022-10-07T00:11:16.996Z,21.77
2022-10-07T00:13:46.441Z,26.97
2022-10-07T00:16:17.379Z,20.13
2022-10-07T00:18:44.872Z,18.70
2022-10-07T00:21:14.437Z,18.13
2022-10-07T00:23:43.781Z,17.83
2022-10-07T00:26:17.133Z,19.70
2022-10-07T00:28:44.784Z,27.47
2022-10-07T00:31:22.947Z,21.60
2022-10-07T00:33:51.267Z,19.00
2022-10-07T00:36:23.687Z,21.80
2022-10-07T00:38:56.222Z,22.67
2022-10-07T00:41:29.849Z,17.87
2022-10-07T00:43:57.421Z,18.83
2022-10-07T00:46:30.515Z,21.03
2022-10-07T00:49:04.615Z,17.73
2022-10-07T00:51:34.158Z,17.27
2022-10-07T00:54:05.004Z,18.30
2022-10-07T00:56:33.347Z,21.67
2022-10-07T00:59:00.764Z,16.87
2022-10-07T01:01:27.911Z,18.97
2022-10-07T01:03:55.115Z,18.00
2022-10-07T01:06:22.691Z,18.03
2022-10-07T01:08:55.730Z,15.53
2022-10-07T01:11:46.932Z,17.47
2022-10-07T01:14:29.586Z,17.00
2022-10-07T01:16:59.754Z,15.60
2022-10-07T01:19:41.327Z,17.73
2022-10-07T01:22:14.538Z,18.67
2022-10-07T01:24:58.108Z,14.47
2022-10-07T01:27:27.583Z,16.83
2022-10-07T01:29:59.413Z,14.10
2022-10-07T01:32:38.847Z,14.03
2022-10-07T01:35:10.973Z,11.87
2022-10-07T01:37:46.877Z,17.40
2022-10-07T01:40:18.863Z,15.47
2022-10-07T01:42:47.610Z,17.33
2022-10-07T01:45:21.326Z,21.27
2022-10-07T01:47:49.519Z,19.00
2022-10-07T01:50:18.043Z,17.47
2022-10-07T01:52:50.824Z,22.23
2022-10-07T01:56:12.996Z,17.03
2022-10-07T01:59:06.831Z,18.27
2022-10-07T02:01:39.343Z,16.93
2022-10-07T02:04:31.174Z,18.03
2022-10-07T02:07:16.721Z,15.67
2022-10-07T02:10:08.095Z,18.73
2022-10-07T02:12:43.305Z,21.80
2022-10-07T02:15:28.063Z,17.67
2022-10-07T02:18:00.637Z,18.37
2022-10-07T02:20:32.051Z,16.70
2022-10-07T02:23:02.241Z,21.63
2022-10-07T02:25:35.054Z,15.73
2022-10-07T02:28:06.050Z,17.37
2022-10-07T02:30:34.762Z,18.20
2022-10-07T02:33:05.243Z,15.10
2022-10-07T02:35:40.178Z,21.37
2022-10-07T02:38:10.364Z,17.00
2022-10-07T02:40:45.907Z,17.43
2022-10-07T02:43:29.121Z,15.20
2022-10-07T02:46:13.108Z,19.47
2022-10-07T02:48:56.375Z,15.77
2022-10-07T02:51:29.157Z,17.87
2022-10-07T02:53:57.901Z,17.23
2022-10-07T02:56:26.635Z,14.80
2022-10-07T02:58:53.967Z,21.50
2022-10-07T03:01:26.692Z,18.00
2022-10-07T03:03:55.142Z,18.47
2022-10-07T03:06:24.299Z,20.77
2022-10-07T03:08:52.919Z,21.30
2022-10-07T03:11:20.154Z,18.70
2022-10-07T03:13:47.142Z,20.67
2022-10-07T03:16:14.155Z,19.27
2022-10-07T03:18:41.554Z,19.87
2022-10-07T03:21:08.776Z,19.90
2022-10-07T03:23:35.818Z,21.87
2022-10-07T03:26:03.032Z,19.33
2022-10-07T03:28:33.393Z,23.07
2022-10-07T03:31:08.913Z,21.07
2022-10-07T03:33:37.429Z,20.77
2022-10-07T03:36:08.404Z,18.37
2022-10-07T03:38:35.591Z,21.30
2022-10-07T03:41:04.454Z,19.90
2022-10-07T03:43:32.619Z,19.47
2022-10-07T03:46:02.343Z,22.10
2022-10-07T03:48:32.676Z,17.13
2022-10-07T03:50:59.687Z,20.60
2022-10-07T03:53:29.615Z,19.73
2022-10-07T03:55:56.632Z,17.43
2022-10-07T03:58:23.783Z,17.83
2022-10-07T04:00:50.967Z,23.43
2022-10-07T04:03:18.790Z,20.47
2022-10-07T04:05:59.365Z,19.90
2022-10-07T04:08:32.511Z,22.77
2022-10-07T04:11:00.971Z,19.30
2022-10-07T04:13:28.874Z,25.47
2022-10-07T04:15:56.227Z,21.37
2022-10-07T04:18:23.844Z,18.93
2022-10-07T04:20:51.215Z,20.73
2022-10-07T04:23:18.818Z,23.57
2022-10-07T04:25:47.002Z,23.97
2022-10-07T04:28:23.445Z,23.27
2022-10-07T04:30:54.012Z,21.80
2022-10-07T04:33:23.971Z,24.83
2022-10-07T04:35:51.583Z,24.70
2022-10-07T04:38:19.707Z,19.43
2022-10-07T04:40:49.982Z,20.33
2022-10-07T04:43:19.802Z,19.63
2022-10-07T04:45:48.456Z,21.00
2022-10-07T04:48:18.788Z,18.03
2022-10-07T04:50:46.222Z,16.73
2022-10-07T04:53:15.310Z,20.93
2022-10-07T04:55:44.710Z,21.33
2022-10-07T04:58:12.129Z,25.77
2022-10-07T05:00:47.721Z,21.70
2022-10-07T05:03:16.773Z,25.30
2022-10-07T05:05:46.438Z,20.37
2022-10-07T05:08:15.450Z,22.33
2022-10-07T05:10:43.458Z,19.80
2022-10-07T05:13:17.392Z,16.70
2022-10-07T05:15:49.297Z,19.13
2022-10-07T05:18:18.699Z,19.47
2022-10-07T05:20:47.614Z,17.93
2022-10-07T05:23:16.974Z,20.30
2022-10-07T05:25:44.565Z,21.60
2022-10-07T05:28:13.049Z,17.93
2022-10-07T05:30:40.834Z,22.70
2022-10-07T05:33:09.726Z,17.80
2022-10-07T05:35:37.115Z,19.70
2022-10-07T05:38:04.304Z,20.93
2022-10-07T05:40:31.648Z,19.00
2022-10-07T05:42:58.550Z,19.23
2022-10-07T05:45:25.901Z,21.47
2022-10-07T05:47:53.140Z,22.27
2022-10-07T05:50:20.331Z,22.93
2022-10-07T05:52:48.922Z,21.13
2022-10-07T05:55:17.415Z,20.40
2022-10-07T05:57:44.715Z,27.97
2022-10-07T06:00:12.660Z,21.70
2022-10-07T06:02:39.729Z,22.73
2022-10-07T06:05:07.580Z,22.30
2022-10-07T06:07:34.594Z,21.03
2022-10-07T06:10:20.230Z,28.13
2022-10-07T06:13:06.026Z,20.83
2022-10-07T06:15:33.025Z,17.80
2022-10-07T06:18:00.215Z,20.03
2022-10-07T06:20:27.228Z,18.37
2022-10-07T06:22:55.365Z,20.47
2022-10-07T06:25:23.041Z,20.87
2022-10-07T06:27:54.142Z,21.03
2022-10-07T06:30:21.789Z,19.70
2022-10-07T06:32:49.176Z,16.83
2022-10-07T06:35:19.678Z,17.93
2022-10-07T06:37:47.615Z,18.23
2022-10-07T06:40:14.796Z,17.83
2022-10-07T06:42:41.979Z,18.07
2022-10-07T06:45:09.631Z,18.90
2022-10-07T06:47:36.905Z,16.97
2022-10-07T06:50:04.773Z,17.17
2022-10-07T06:52:32.045Z,22.50
2022-10-07T06:54:59.214Z,19.67
2022-10-07T06:57:44.936Z,20.97
2022-10-07T07:00:14.211Z,14.50
2022-10-07T07:02:41.445Z,15.93
2022-10-07T07:05:09.167Z,14.87
2022-10-07T07:07:36.329Z,13.47
2022-10-07T07:10:03.565Z,18.17
2022-10-07T07:12:30.905Z,17.23
2022-10-07T07:15:00.263Z,13.23
2022-10-07T07:17:27.529Z,16.97
2022-10-07T07:19:54.516Z,15.53
2022-10-07T07:22:21.743Z,15.90
2022-10-07T07:24:49.206Z,13.97
2022-10-07T07:27:16.361Z,18.50
2022-10-07T07:29:43.372Z,15.10
2022-10-07T07:32:10.585Z,15.83
2022-10-07T07:34:38.493Z,12.57
2022-10-07T07:37:05.869Z,20.93
2022-10-07T07:39:33.034Z,12.97
2022-10-07T07:42:00.150Z,17.63
2022-10-07T07:44:31.266Z,17.50
2022-10-07T07:47:01.890Z,17.53
2022-10-07T07:49:31.963Z,17.90
2022-10-07T07:51:59.182Z,12.30
2022-10-07T07:54:30.520Z,21.97
2022-10-07T07:56:58.232Z,15.53
2022-10-07T07:59:25.735Z,17.70
2022-10-07T08:01:52.928Z,16.33
2022-10-07T08:04:19.983Z,14.70
2022-10-07T08:06:47.174Z,16.20
2022-10-07T08:09:14.221Z,37.37
2022-10-07T08:11:45.431Z,16.10
2022-10-07T08:14:17.801Z,14.60
2022-10-07T08:16:45.213Z,13.37
2022-10-07T08:19:12.494Z,14.77
2022-10-07T08:21:39.808Z,16.43
2022-10-07T08:24:08.267Z,17.83
2022-10-07T08:26:35.692Z,14.27
2022-10-07T08:29:04.889Z,15.70
2022-10-07T08:31:33.451Z,20.33
2022-10-07T08:34:02.633Z,17.77
2022-10-07T08:36:32.910Z,17.27
2022-10-07T08:39:01.301Z,16.50
2022-10-07T08:42:02.826Z,12.67
2022-10-07T08:44:38.621Z,15.87
2022-10-07T08:47:30.554Z,13.67
2022-10-07T08:50:18.962Z,14.33
2022-10-07T08:53:07.017Z,17.43
2022-10-07T08:55:44.979Z,13.17
2022-10-07T08:58:26.548Z,13.83
2022-10-07T09:01:17.749Z,13.27
2022-10-07T09:04:06.547Z,17.43
2022-10-07T09:06:42.544Z,8.73
2022-10-07T09:09:24.407Z,11.07
2022-10-07T09:11:53.637Z,14.73
2022-10-07T09:14:31.802Z,11.03
2022-10-07T09:17:08.820Z,14.40
2022-10-07T09:19:44.758Z,12.03
2022-10-07T09:22:19.495Z,5.37
2022-10-07T09:24:49.218Z,6.10
2022-10-07T09:27:19.397Z,5.43
2022-10-07T09:29:46.594Z,10.03
2022-10-07T09:32:17.580Z,6.30
2022-10-07T09:34:45.919Z,6.83
2022-10-07T09:37:26.691Z,5.10
2022-10-07T09:39:57.906Z,9.53
2022-10-07T09:42:35.426Z,8.00
2022-10-07T09:45:17.670Z,7.27
2022-10-07T09:47:49.850Z,14.17
2022-10-07T09:50:37.159Z,5.00
2022-10-07T09:53:15.414Z,7.83
2022-10-07T09:55:43.629Z,7.10
2022-10-07T09:58:20.426Z,14.93
2022-10-07T10:00:52.555Z,6.07
2022-10-07T10:03:20.809Z,4.03
2022-10-07T10:05:59.781Z,5.33
2022-10-07T10:08:45.753Z,7.80
2022-10-07T10:11:18.989Z,4.80
2022-10-07T10:13:48.986Z,8.33
2022-10-07T10:16:25.894Z,3.03
2022-10-07T10:19:04.850Z,7.67
2022-10-07T10:21:41.106Z,4.47
2022-10-07T10:24:14.271Z,8.40
2022-10-07T10:27:06.920Z,3.23
2022-10-07T10:29:37.217Z,7.50
2022-10-07T10:32:37.008Z,9.07
2022-10-07T10:35:14.832Z,4.47
2022-10-07T10:37:41.987Z,6.93
2022-10-07T10:40:40.260Z,9.30
2022-10-07T10:43:25.898Z,4.37
2022-10-07T10:46:40.095Z,4.50
2022-10-07T10:49:16.048Z,2.27
2022-10-07T10:52:04.046Z,6.27
2022-10-07T10:55:14.579Z,6.73
2022-10-07T10:58:00.346Z,5.20
2022-10-07T11:00:57.622Z,5.57
2022-10-07T11:03:46.490Z,4.43
2022-10-07T11:06:17.100Z,5.40
2022-10-07T11:08:47.488Z,3.80
2022-10-07T11:11:20.073Z,8.70
2022-10-07T11:13:54.775Z,3.90
2022-10-07T11:17:03.291Z,4.03
2022-10-07T11:19:38.553Z,3.03
2022-10-07T11:22:15.443Z,5.07
2022-10-07T11:24:47.466Z,4.30
2022-10-07T11:27:27.737Z,3.33
2022-10-07T11:30:00.401Z,3.83
2022-10-07T11:33:08.401Z,4.77
2022-10-07T11:35:43.901Z,5.30
2022-10-07T11:38:12.259Z,3.33
2022-10-07T11:40:59.582Z,5.63
2022-10-07T11:43:33.096Z,2.90
2022-10-07T11:46:22.278Z,4.80
2022-10-07T11:49:20.077Z,7.53
2022-10-07T11:52:06.616Z,37.57
2022-10-07T11:54:48.407Z,5.23
2022-10-07T11:57:22.507Z,5.47
2022-10-07T12:00:29.783Z,4.77
2022-10-07T12:03:10.169Z,4.57
2022-10-07T12:05:37.306Z,5.40
2022-10-07T12:08:33.152Z,7.90
2022-10-07T12:11:15.008Z,7.93
2022-10-07T12:13:53.650Z,6.43
2022-10-07T12:16:23.957Z,5.83
2022-10-07T12:19:13.018Z,7.50
2022-10-07T12:21:59.523Z,4.27
2022-10-07T12:24:33.443Z,6.70
2022-10-07T12:27:19.774Z,6.57
2022-10-07T12:30:02.214Z,4.47
2022-10-07T12:32:47.347Z,7.10
2022-10-07T12:35:34.733Z,7.70
2022-10-07T12:38:05.423Z,6.17
2022-10-07T12:40:35.537Z,2.93
2022-10-07T12:43:17.925Z,3.30
2022-10-07T12:45:45.399Z,4.17
2022-10-07T12:48:22.075Z,6.57
2022-10-07T12:50:52.970Z,5.83
2022-10-07T12:53:24.759Z,5.83
2022-10-07T12:55:55.363Z,6.33
2022-10-07T12:58:56.152Z,4.33
2022-10-07T13:01:35.552Z,6.67
2022-10-07T13:04:38.992Z,5.53
2022-10-07T13:07:38.896Z,3.00
2022-10-07T13:10:44.890Z,6.73
2022-10-07T13:13:29.579Z,5.50
2022-10-07T13:16:08.388Z,8.47
2022-10-07T13:18:47.259Z,4.30
2022-10-07T13:21:25.887Z,4.67
2022-10-07T13:23:55.267Z,5.07
2022-10-07T13:26:24.206Z,4.43
2022-10-07T13:28:58.371Z,4.80
2022-10-07T13:31:28.380Z,5.33
2022-10-07T13:33:58.044Z,4.33
2022-10-07T13:36:28.216Z,3.97
2022-10-07T13:39:11.130Z,2.37
2022-10-07T13:41:42.594Z,4.43
2022-10-07T13:44:16.013Z,4.10
2022-10-07T13:46:55.826Z,4.03
2022-10-07T13:49:27.052Z,6.27
2022-10-07T13:51:56.875Z,4.03
2022-10-07T13:54:27.768Z,5.30
2022-10-07T13:56:55.541Z,8.03
2022-10-07T13:59:23.672Z,7.47
2022-10-07T14:01:56.838Z,5.13
2022-10-07T14:04:31.449Z,7.77
2022-10-07T14:07:08.184Z,8.27
2022-10-07T14:09:44.729Z,5.23
2022-10-07T14:12:17.392Z,6.57
2022-10-07T14:14:51.750Z,3.63
2022-10-07T14:17:39.468Z,7.60
2022-10-07T14:20:25.626Z,7.27
2022-10-07T14:23:21.688Z,8.17
2022-10-07T14:25:56.320Z,7.00
2022-10-07T14:28:23.500Z,6.20
2022-10-07T14:31:35.177Z,6.33
2022-10-07T14:34:37.153Z,7.13
2022-10-07T14:37:10.439Z,8.73
2022-10-07T14:39:49.464Z,10.57
2022-10-07T14:42:40.444Z,6.37
2022-10-07T14:45:14.099Z,6.30
2022-10-07T14:47:41.523Z,8.00
2022-10-07T14:50:08.828Z,8.97
2022-10-07T14:52:44.510Z,5.23
2022-10-07T14:55:27.662Z,3.93
2022-10-07T14:57:55.228Z,6.23
2022-10-07T15:00:25.187Z,6.90
2022-10-07T15:02:53.409Z,6.70
2022-10-07T15:05:22.653Z,6.93
2022-10-07T15:07:50.790Z,7.13
2022-10-07T15:10:21.158Z,7.63
2022-10-07T15:12:49.071Z,5.47
2022-10-07T15:15:17.239Z,6.13
2022-10-07T15:17:44.752Z,7.73
2022-10-07T15:20:16.480Z,9.77
2022-10-07T15:22:44.352Z,8.77
2022-10-07T15:25:12.810Z,6.73
2022-10-07T15:27:40.080Z,8.63
2022-10-07T15:30:07.967Z,9.37
2022-10-07T15:32:34.985Z,7.90
2022-10-07T15:35:02.199Z,6.00
2022-10-07T15:37:29.698Z,8.83
2022-10-07T15:39:56.897Z,8.27
2022-10-07T15:42:25.045Z,9.80
2022-10-07T15:44:53.026Z,17.27
2022-10-07T15:47:20.171Z,7.00
2022-10-07T15:49:47.239Z,8.77
2022-10-07T15:52:14.615Z,8.93
2022-10-07T15:54:41.670Z,8.73
2022-10-07T15:57:09.082Z,8.90
2022-10-07T15:59:36.340Z,11.73
2022-10-07T16:02:04.461Z,8.57
2022-10-07T16:04:31.709Z,9.93
2022-10-07T16:06:59.559Z,11.47
2022-10-07T16:09:26.891Z,8.00
2022-10-07T16:11:54.135Z,8.93
2022-10-07T16:14:21.387Z,9.77
2022-10-07T16:16:48.348Z,9.47
2022-10-07T16:19:15.337Z,11.70
2022-10-07T16:21:43.397Z,13.73
2022-10-07T16:24:18.663Z,22.50
2022-10-07T16:26:47.313Z,13.40
2022-10-07T16:29:35.879Z,10.07
2022-10-07T16:32:04.023Z,7.17
2022-10-07T16:34:30.979Z,9.60
2022-10-07T16:36:58.756Z,11.73
2022-10-07T16:39:25.926Z,10.73
2022-10-07T16:41:53.460Z,7.90
2022-10-07T16:44:21.295Z,11.47
2022-10-07T16:46:48.952Z,11.67
2022-10-07T16:49:17.866Z,13.97
2022-10-07T16:51:46.476Z,9.40
2022-10-07T16:54:17.997Z,9.70
2022-10-07T16:56:49.886Z,13.20
2022-10-07T16:59:23.884Z,14.40
2022-10-07T17:01:55.348Z,9.73
2022-10-07T17:04:23.791Z,11.17
2022-10-07T17:06:50.907Z,10.07
2022-10-07T17:09:18.619Z,11.27
2022-10-07T17:11:46.384Z,11.83
2022-10-07T17:14:16.353Z,11.07
2022-10-07T17:16:56.579Z,11.80
2022-10-07T17:19:28.555Z,11.73
2022-10-07T17:21:57.348Z,15.30
2022-10-07T17:24:24.664Z,15.70
2022-10-07T17:26:53.036Z,12.87
2022-10-07T17:29:24.923Z,13.00
2022-10-07T17:31:53.111Z,12.90
2022-10-07T17:34:21.896Z,14.60
2022-10-07T17:36:50.291Z,10.83
2022-10-07T17:39:19.197Z,12.57
2022-10-07T17:41:46.836Z,11.50
2022-10-07T17:44:15.435Z,16.13
2022-10-07T17:46:42.760Z,13.37
2022-10-07T17:49:13.497Z,14.07
2022-10-07T17:51:43.091Z,16.13
2022-10-07T17:54:13.746Z,25.30
2022-10-07T17:56:42.471Z,18.17
2022-10-07T17:59:09.510Z,19.80
2022-10-07T18:01:37.738Z,17.10
2022-10-07T18:04:07.700Z,16.80
2022-10-07T18:06:36.893Z,14.27
2022-10-07T18:09:05.877Z,14.77
2022-10-07T18:11:53.940Z,14.67
2022-10-07T18:14:39.815Z,16.70
2022-10-07T18:17:07.899Z,14.37
2022-10-07T18:19:35.451Z,14.67
2022-10-07T18:22:05.199Z,16.17
2022-10-07T18:24:33.034Z,18.23
2022-10-07T18:27:01.419Z,15.73
2022-10-07T18:29:31.070Z,18.77
2022-10-07T18:31:58.682Z,16.43
2022-10-07T18:34:26.050Z,16.83
2022-10-07T18:36:56.580Z,16.27
2022-10-07T18:39:29.437Z,19.07
2022-10-07T18:41:57.213Z,21.93
2022-10-07T18:44:24.519Z,16.33
2022-10-07T18:46:51.870Z,17.40
2022-10-07T18:49:18.950Z,17.70
2022-10-07T18:51:47.251Z,18.77
2022-10-07T18:54:14.587Z,19.93
2022-10-07T18:56:41.886Z,19.70
2022-10-07T18:59:13.044Z,14.80
2022-10-07T19:01:40.680Z,19.87
2022-10-07T19:04:09.001Z,16.20
2022-10-07T19:06:38.439Z,20.53
2022-10-07T19:09:08.365Z,19.70
2022-10-07T19:11:35.463Z,19.30
2022-10-07T19:14:02.795Z,18.93
2022-10-07T19:16:34.529Z,20.17
2022-10-07T19:19:05.226Z,20.83
2022-10-07T19:21:32.928Z,18.17
2022-10-07T19:24:01.720Z,17.03
2022-10-07T19:26:31.768Z,17.80
2022-10-07T19:28:58.914Z,18.93
2022-10-07T19:31:29.515Z,17.83
2022-10-07T19:34:02.293Z,19.33
2022-10-07T19:36:31.706Z,18.67
2022-10-07T19:38:59.514Z,20.50
2022-10-07T19:41:29.327Z,18.93
2022-10-07T19:43:57.075Z,17.80
2022-10-07T19:46:26.108Z,18.33
2022-10-07T19:48:56.973Z,17.63
2022-10-07T19:51:28.540Z,23.30
2022-10-07T19:53:57.449Z,20.10
2022-10-07T19:56:30.066Z,21.83
2022-10-07T19:59:00.415Z,20.23
2022-10-07T20:01:33.867Z,15.43
2022-10-07T20:04:06.487Z,21.33
2022-10-07T20:06:37.798Z,21.13
2022-10-07T20:09:07.174Z,17.97
2022-10-07T20:11:34.302Z,23.13
2022-10-07T20:14:03.012Z,18.93
2022-10-07T20:16:31.227Z,15.63
2022-10-07T20:19:01.112Z,17.13
2022-10-07T20:21:28.833Z,18.63
2022-10-07T20:23:56.650Z,17.03
2022-10-07T20:26:29.064Z,19.87
2022-10-07T20:28:58.322Z,15.83
2022-10-07T20:31:32.535Z,18.83
2022-10-07T20:34:00.835Z,15.80
2022-10-07T20:36:33.253Z,17.70
2022-10-07T20:39:23.080Z,21.07
2022-10-07T20:42:10.647Z,18.97
2022-10-07T20:44:38.770Z,18.33
2022-10-07T20:47:08.137Z,21.87
2022-10-07T20:49:37.431Z,17.10
2022-10-07T20:52:24.895Z,22.50
2022-10-07T20:54:52.954Z,18.33
2022-10-07T20:57:23.675Z,20.67
2022-10-07T20:59:51.139Z,23.23
2022-10-07T21:02:20.178Z,18.40
2022-10-07T21:04:48.205Z,16.60
2022-10-07T21:07:17.430Z,20.80
2022-10-07T21:09:45.801Z,18.60
2022-10-07T21:12:16.587Z,21.50
2022-10-07T21:14:44.325Z,20.40
2022-10-07T21:17:12.103Z,19.20
2022-10-07T21:19:40.045Z,20.00
2022-10-07T21:22:07.730Z,18.20
2022-10-07T21:24:34.939Z,21.77
2022-10-07T21:27:04.436Z,22.97
2022-10-07T21:29:32.022Z,21.63
2022-10-07T21:32:00.113Z,19.60
2022-10-07T21:34:29.664Z,28.40
2022-10-07T21:36:57.690Z,23.13
2022-10-07T21:39:26.268Z,25.03
2022-10-07T21:41:53.490Z,23.40
2022-10-07T21:44:20.992Z,23.93
2022-10-07T21:46:48.235Z,23.00
2022-10-07T21:49:16.285Z,21.20
2022-10-07T21:51:44.351Z,22.10
2022-10-07T21:54:15.290Z,22.90
2022-10-07T21:56:45.212Z,18.33
2022-10-07T21:59:12.985Z,21.00
2022-10-07T22:01:40.218Z,22.33
2022-10-07T22:04:08.124Z,21.87
2022-10-07T22:06:53.754Z,20.13
2022-10-07T22:09:21.493Z,22.00
2022-10-07T22:11:50.339Z,20.00
2022-10-07T22:14:19.091Z,20.83
2022-10-07T22:16:49.872Z,19.83
2022-10-07T22:19:17.764Z,25.23
2022-10-07T22:21:45.928Z,18.90
2022-10-07T22:24:13.874Z,22.50
2022-10-07T22:26:45.454Z,20.60
2022-10-07T22:29:13.754Z,21.67
2022-10-07T22:31:40.812Z,25.50
2022-10-07T22:34:07.999Z,25.77
2022-10-07T22:36:36.814Z,26.13
2022-10-07T22:39:04.211Z,25.30
2022-10-07T22:41:32.117Z,22.23
2022-10-07T22:43:59.523Z,23.67
2022-10-07T22:46:28.030Z,21.70
2022-10-07T22:48:56.589Z,21.67
2022-10-07T22:51:24.562Z,21.43
2022-10-07T22:53:54.440Z,20.33
2022-10-07T22:56:23.467Z,23.40
2022-10-07T22:58:58.099Z,21.40
2022-10-07T23:01:29.315Z,21.50
2022-10-07T23:03:58.849Z,22.97
2022-10-07T23:06:26.260Z,22.10
2022-10-07T23:08:53.354Z,21.50
2022-10-07T23:11:23.362Z,20.90
2022-10-07T23:13:51.611Z,21.10
2022-10-07T23:16:21.220Z,21.37
2022-10-07T23:18:49.879Z,21.93
2022-10-07T23:21:22.853Z,21.17
2022-10-07T23:23:57.319Z,20.77
2022-10-07T23:26:27.523Z,21.27
2022-10-07T23:28:56.588Z,21.27
2022-10-07T23:31:27.189Z,23.23
2022-10-07T23:33:56.067Z,21.20
2022-10-07T23:36:23.920Z,20.40
2022-10-07T23:38:52.212Z,22.27
2022-10-07T23:41:25.143Z,19.87
2022-10-07T23:43:54.097Z,26.23
2022-10-07T23:46:22.752Z,24.40
2022-10-07T23:48:50.089Z,21.40
2022-10-07T23:51:20.178Z,21.80
2022-10-07T23:53:48.255Z,23.53
2022-10-07T23:56:15.260Z,20.13
2022-10-07T23:58:42.218Z,19.60
